createdAt,value
2022-10-31T00:02:00.689Z,2.20
2022-10-31T00:04:28.245Z,1.67
2022-10-31T00:06:55.706Z,1.50
2022-10-31T00:09:23.364Z,1.65
2022-10-31T00:11:51.327Z,2.10
2022-10-31T00:14:18.723Z,2.97
2022-10-31T00:16:46.209Z,1.73
2022-10-31T00:19:13.627Z,2.53
2022-10-31T00:21:41.082Z,2.47
2022-10-31T00:24:08.600Z,2.15
2022-10-31T00:26:35.961Z,2.33
2022-10-31T00:29:03.863Z,2.00
2022-10-31T00:31:31.418Z,2.00
2022-10-31T00:33:59.550Z,1.77
2022-10-31T00:36:26.918Z,2.10
2022-10-31T00:38:54.447Z,2.13
2022-10-31T00:41:21.879Z,2.45
2022-10-31T00:43:50.313Z,2.22
2022-10-31T00:46:17.666Z,2.08
2022-10-31T00:48:45.108Z,2.47
2022-10-31T00:51:12.454Z,2.40
2022-10-31T00:53:39.821Z,1.45
2022-10-31T00:56:07.426Z,3.53
2022-10-31T00:58:34.747Z,1.95
2022-10-31T01:01:02.271Z,1.77
2022-10-31T01:03:31.307Z,2.40
2022-10-31T01:05:58.911Z,2.25
2022-10-31T01:08:26.868Z,2.38
2022-10-31T01:11:14.318Z,2.30
2022-10-31T01:13:42.077Z,2.33
2022-10-31T01:16:11.464Z,2.47
2022-10-31T01:18:38.922Z,2.63
2022-10-31T01:21:07.917Z,2.70
2022-10-31T01:23:35.356Z,1.80
2022-10-31T01:26:03.602Z,2.20
2022-10-31T01:28:31.220Z,3.85
2022-10-31T01:31:04.001Z,1.90
2022-10-31T01:33:31.440Z,2.30
2022-10-31T01:35:58.742Z,2.00
2022-10-31T01:38:26.093Z,2.40
2022-10-31T01:40:53.824Z,2.00
2022-10-31T01:45:53.140Z,1.23
2022-10-31T01:48:21.837Z,2.22
2022-10-31T01:50:50.375Z,2.38
2022-10-31T01:53:19.887Z,2.70
2022-10-31T01:55:50.337Z,2.90
2022-10-31T01:58:20.999Z,2.75
2022-10-31T02:00:50.951Z,2.70
2022-10-31T02:03:18.869Z,2.75
2022-10-31T02:05:46.420Z,2.65
2022-10-31T02:08:13.854Z,2.58
2022-10-31T02:10:41.852Z,2.97
2022-10-31T02:13:10.163Z,1.83
2022-10-31T02:15:38.854Z,2.75
2022-10-31T02:18:06.697Z,3.10
2022-10-31T02:20:36.202Z,2.70
2022-10-31T02:23:06.696Z,3.13
2022-10-31T02:25:54.153Z,2.65
2022-10-31T02:28:28.204Z,2.65
2022-10-31T02:30:55.493Z,2.25
2022-10-31T02:33:49.257Z,2.30
2022-10-31T02:36:25.918Z,3.25
2022-10-31T02:39:11.961Z,2.90
2022-10-31T02:41:52.202Z,2.58
2022-10-31T02:44:22.724Z,2.13
2022-10-31T02:47:14.190Z,1.88
2022-10-31T02:49:45.668Z,2.85
2022-10-31T02:52:19.262Z,3.08
2022-10-31T02:54:47.635Z,1.85
2022-10-31T02:57:16.556Z,2.03
2022-10-31T02:59:48.375Z,2.22
2022-10-31T03:02:37.013Z,2.40
2022-10-31T03:05:23.233Z,2.28
2022-10-31T03:08:05.898Z,2.88
2022-10-31T03:10:38.120Z,2.72
2022-10-31T03:13:25.575Z,2.50
2022-10-31T03:16:06.105Z,2.55
2022-10-31T03:18:41.002Z,2.15
2022-10-31T03:21:16.404Z,2.70
2022-10-31T03:23:46.089Z,2.85
2022-10-31T03:26:14.225Z,2.95
2022-10-31T03:28:46.802Z,2.80
2022-10-31T03:31:15.690Z,2.60
2022-10-31T03:33:44.650Z,3.30
2022-10-31T03:36:13.576Z,1.88
2022-10-31T03:38:42.314Z,2.28
2022-10-31T03:41:12.579Z,1.98
2022-10-31T03:43:43.261Z,2.17
2022-10-31T03:46:12.268Z,2.05
2022-10-31T03:48:40.051Z,2.38
2022-10-31T03:51:16.594Z,2.55
2022-10-31T03:53:49.005Z,2.13
2022-10-31T03:56:35.309Z,2.22
2022-10-31T03:59:16.250Z,2.05
2022-10-31T04:01:48.312Z,2.88
2022-10-31T04:04:16.200Z,1.53
2022-10-31T04:06:44.935Z,2.40
2022-10-31T04:09:12.859Z,2.15
2022-10-31T04:11:44.243Z,2.63
2022-10-31T04:14:13.006Z,2.60
2022-10-31T04:16:44.494Z,1.88
2022-10-31T04:19:12.954Z,2.63
2022-10-31T04:21:40.445Z,2.78
2022-10-31T04:24:08.063Z,1.88
2022-10-31T04:26:35.521Z,3.88
2022-10-31T04:29:02.969Z,2.20
2022-10-31T04:31:30.401Z,2.30
2022-10-31T04:33:57.875Z,2.30
2022-10-31T04:36:25.310Z,2.92
2022-10-31T04:38:52.765Z,3.33
2022-10-31T04:41:20.219Z,2.97
2022-10-31T04:43:47.646Z,3.00
2022-10-31T04:46:15.062Z,3.15
2022-10-31T04:48:42.694Z,3.45
2022-10-31T04:51:10.154Z,3.08
2022-10-31T04:53:37.599Z,2.72
2022-10-31T04:56:05.166Z,3.30
2022-10-31T04:58:32.651Z,3.17
2022-10-31T05:01:00.266Z,2.72
2022-10-31T05:03:27.825Z,2.60
2022-10-31T05:05:55.245Z,3.03
2022-10-31T05:08:22.681Z,3.72
2022-10-31T05:10:50.172Z,4.32
2022-10-31T05:13:17.689Z,2.55
2022-10-31T05:15:45.153Z,3.47
2022-10-31T05:18:12.615Z,2.53
2022-10-31T05:20:40.251Z,2.65
2022-10-31T05:23:07.685Z,2.17
2022-10-31T05:25:35.209Z,2.33
2022-10-31T05:28:02.939Z,2.03
2022-10-31T05:30:32.027Z,2.70
2022-10-31T05:32:59.843Z,3.22
2022-10-31T05:35:28.963Z,2.75
2022-10-31T05:37:56.585Z,3.10
2022-10-31T05:40:24.112Z,3.13
2022-10-31T05:42:55.417Z,2.72
2022-10-31T05:45:23.502Z,2.50
2022-10-31T05:47:58.654Z,2.53
2022-10-31T05:50:26.988Z,3.00
2022-10-31T05:52:59.611Z,3.30
2022-10-31T05:55:29.573Z,3.20
2022-10-31T05:57:57.379Z,2.05
2022-10-31T06:00:25.964Z,2.50
2022-10-31T06:03:00.748Z,2.33
2022-10-31T06:05:28.656Z,2.47
2022-10-31T06:07:56.111Z,3.10
2022-10-31T06:10:24.235Z,2.92
2022-10-31T06:12:51.939Z,3.45
2022-10-31T06:15:23.687Z,2.90
2022-10-31T06:18:02.543Z,3.08
2022-10-31T06:20:30.556Z,2.95
2022-10-31T06:22:58.301Z,2.38
2022-10-31T06:25:26.000Z,2.67
2022-10-31T06:27:54.704Z,2.78
2022-10-31T06:30:22.433Z,3.63
2022-10-31T06:32:51.318Z,3.13
2022-10-31T06:35:18.946Z,2.63
2022-10-31T06:37:52.696Z,3.38
2022-10-31T06:40:20.254Z,3.03
2022-10-31T06:42:47.685Z,2.55
2022-10-31T06:45:15.224Z,2.65
2022-10-31T06:48:10.875Z,3.00
2022-10-31T06:50:30.213Z,2.55
2022-10-31T06:52:59.081Z,3.17
2022-10-31T06:55:27.136Z,2.70
2022-10-31T06:57:57.645Z,2.72
2022-10-31T07:00:29.214Z,2.60
2022-10-31T07:02:57.015Z,3.25
2022-10-31T07:05:24.569Z,2.78
2022-10-31T07:07:59.326Z,2.60
2022-10-31T07:10:28.635Z,3.50
2022-10-31T07:13:00.677Z,2.85
2022-10-31T07:15:29.510Z,2.28
2022-10-31T07:18:01.980Z,2.95
2022-10-31T07:20:29.937Z,2.55
2022-10-31T07:22:57.387Z,2.70
2022-10-31T07:25:26.107Z,2.83
2022-10-31T07:27:53.616Z,2.65
2022-10-31T07:30:21.103Z,2.67
2022-10-31T07:32:49.624Z,2.60
2022-10-31T07:35:18.737Z,2.65
2022-10-31T07:37:46.355Z,2.88
2022-10-31T07:40:14.190Z,2.55
2022-10-31T07:42:45.839Z,3.50
2022-10-31T07:45:14.764Z,2.22
2022-10-31T07:47:46.014Z,3.08
2022-10-31T07:50:14.724Z,2.78
2022-10-31T07:52:42.193Z,3.00
2022-10-31T07:55:09.999Z,3.05
2022-10-31T07:57:40.384Z,3.35
2022-10-31T08:00:09.161Z,2.70
2022-10-31T08:02:36.855Z,3.00
2022-10-31T08:05:04.503Z,2.75
2022-10-31T08:07:32.026Z,2.70
2022-10-31T08:09:59.494Z,2.67
2022-10-31T08:12:26.925Z,2.92
2022-10-31T08:14:54.388Z,2.95
2022-10-31T08:17:21.805Z,3.05
2022-10-31T08:19:49.268Z,2.53
2022-10-31T08:22:16.734Z,2.38
2022-10-31T08:24:44.177Z,3.00
2022-10-31T08:27:11.647Z,3.67
2022-10-31T08:29:39.023Z,2.67
2022-10-31T08:32:06.510Z,2.80
2022-10-31T08:34:33.967Z,1.88
2022-10-31T08:37:01.424Z,2.08
2022-10-31T08:39:29.127Z,2.35
2022-10-31T08:41:56.601Z,2.70
2022-10-31T08:44:24.259Z,1.90
2022-10-31T08:46:51.709Z,1.73
2022-10-31T08:49:19.174Z,2.67
2022-10-31T08:51:49.178Z,1.25
2022-10-31T08:54:16.775Z,2.80
2022-10-31T08:56:44.880Z,1.73
2022-10-31T08:59:12.393Z,1.95
2022-10-31T09:01:39.986Z,2.17
2022-10-31T09:04:07.495Z,2.80
2022-10-31T09:06:35.548Z,2.50
2022-10-31T09:09:03.002Z,1.90
2022-10-31T09:11:31.774Z,3.25
2022-10-31T09:13:59.168Z,2.25
2022-10-31T09:16:26.654Z,2.67
2022-10-31T09:18:54.125Z,2.33
2022-10-31T09:21:21.543Z,2.72
2022-10-31T09:23:48.979Z,2.65
2022-10-31T09:26:16.469Z,2.03
2022-10-31T09:28:43.974Z,2.58
2022-10-31T09:31:11.448Z,3.00
2022-10-31T09:33:39.283Z,3.15
2022-10-31T09:36:06.832Z,2.70
2022-10-31T09:38:34.222Z,3.17
2022-10-31T09:41:20.377Z,3.35
2022-10-31T09:43:51.140Z,2.20
2022-10-31T09:46:37.674Z,2.78
2022-10-31T09:49:05.184Z,2.80
2022-10-31T09:51:35.954Z,2.90
2022-10-31T09:54:15.378Z,2.60
2022-10-31T09:56:43.093Z,2.63
2022-10-31T09:59:29.472Z,3.65
2022-10-31T10:02:02.593Z,2.33
2022-10-31T10:04:30.704Z,2.50
2022-10-31T10:06:58.201Z,3.30
2022-10-31T10:09:27.339Z,2.80
2022-10-31T10:12:00.668Z,2.05
2022-10-31T10:14:33.908Z,2.97
2022-10-31T10:17:17.039Z,2.40
2022-10-31T10:19:56.743Z,2.90
2022-10-31T10:22:24.211Z,3.28
2022-10-31T10:25:03.634Z,3.08
2022-10-31T10:27:49.936Z,2.83
2022-10-31T10:30:19.535Z,2.90
2022-10-31T10:32:52.491Z,2.63
2022-10-31T10:35:35.084Z,3.00
2022-10-31T10:38:17.994Z,3.35
2022-10-31T10:40:45.968Z,3.20
2022-10-31T10:43:28.053Z,3.17
2022-10-31T10:46:28.426Z,2.67
2022-10-31T10:49:02.121Z,3.08
2022-10-31T10:52:07.057Z,4.03
2022-10-31T10:54:47.424Z,2.83
2022-10-31T10:57:19.403Z,3.33
2022-10-31T10:59:47.573Z,3.13
2022-10-31T11:02:34.512Z,3.40
2022-10-31T11:05:03.052Z,2.88
2022-10-31T11:07:42.714Z,3.20
2022-10-31T11:10:17.400Z,3.65
2022-10-31T11:12:46.760Z,2.70
2022-10-31T11:15:22.026Z,3.22
2022-10-31T11:17:53.978Z,3.53
2022-10-31T11:20:21.535Z,3.70
2022-10-31T11:22:49.864Z,3.72
2022-10-31T11:25:27.734Z,2.90
2022-10-31T11:28:08.987Z,4.50
2022-10-31T11:30:47.556Z,3.75
2022-10-31T11:33:20.892Z,4.20
2022-10-31T11:35:52.202Z,4.50
2022-10-31T11:38:24.483Z,3.85
2022-10-31T11:41:00.230Z,4.35
2022-10-31T11:43:28.104Z,4.57
2022-10-31T11:45:55.658Z,3.85
2022-10-31T11:48:25.011Z,3.75
2022-10-31T11:50:54.658Z,4.68
2022-10-31T11:53:28.763Z,4.57
2022-10-31T11:56:07.632Z,4.20
2022-10-31T11:58:35.107Z,4.57
2022-10-31T12:01:02.688Z,4.50
2022-10-31T12:03:49.398Z,4.45
2022-10-31T12:06:16.860Z,4.45
2022-10-31T12:08:44.356Z,5.50
2022-10-31T12:11:11.831Z,5.53
2022-10-31T12:13:42.598Z,4.88
2022-10-31T12:16:14.718Z,5.63
2022-10-31T12:19:05.351Z,4.37
2022-10-31T12:21:59.285Z,4.25
2022-10-31T12:24:27.379Z,4.43
2022-10-31T12:27:23.204Z,3.95
2022-10-31T12:30:11.807Z,5.03
2022-10-31T12:33:05.918Z,5.28
2022-10-31T12:35:47.427Z,4.30
2022-10-31T12:38:33.321Z,5.15
2022-10-31T12:41:19.406Z,5.20
2022-10-31T12:44:07.047Z,4.30
2022-10-31T12:46:37.538Z,4.50
2022-10-31T12:49:12.202Z,5.35
2022-10-31T12:51:50.102Z,4.60
2022-10-31T12:54:29.776Z,4.55
2022-10-31T12:57:05.781Z,4.68
2022-10-31T12:59:38.573Z,4.25
2022-10-31T13:02:15.280Z,4.32
2022-10-31T13:04:58.051Z,3.58
2022-10-31T13:07:28.982Z,3.83
2022-10-31T13:10:10.588Z,4.85
2022-10-31T13:12:38.010Z,5.28
2022-10-31T13:15:07.733Z,4.70
2022-10-31T13:17:43.223Z,5.32
2022-10-31T13:20:20.798Z,4.13
2022-10-31T13:22:50.217Z,4.10
2022-10-31T13:25:20.722Z,4.20
2022-10-31T13:27:52.138Z,4.05
2022-10-31T13:30:24.167Z,4.88
2022-10-31T13:33:02.946Z,4.32
2022-10-31T13:35:34.308Z,3.70
2022-10-31T13:38:12.829Z,5.20
2022-10-31T13:40:58.729Z,4.40
2022-10-31T13:43:37.810Z,3.88
2022-10-31T13:46:23.282Z,3.85
2022-10-31T13:48:50.848Z,4.57
2022-10-31T13:51:26.887Z,4.63
2022-10-31T13:53:55.191Z,3.92
2022-10-31T13:56:24.071Z,5.03
2022-10-31T13:59:00.283Z,4.40
2022-10-31T14:01:30.607Z,4.63
2022-10-31T14:04:11.014Z,5.25
2022-10-31T14:06:59.926Z,4.93
2022-10-31T14:09:27.485Z,4.50
2022-10-31T14:11:55.295Z,4.85
2022-10-31T14:14:23.792Z,4.22
2022-10-31T14:16:56.187Z,3.38
2022-10-31T14:19:24.115Z,3.75
2022-10-31T14:21:52.513Z,4.05
2022-10-31T14:24:26.311Z,3.88
2022-10-31T14:27:20.063Z,4.00
2022-10-31T14:29:50.458Z,3.30
2022-10-31T14:32:25.355Z,3.53
2022-10-31T14:34:53.017Z,3.28
2022-10-31T14:37:39.233Z,2.15
2022-10-31T14:40:17.331Z,3.15
2022-10-31T14:42:54.716Z,2.90
2022-10-31T14:45:36.781Z,2.42
2022-10-31T14:48:10.995Z,1.75
2022-10-31T14:50:38.462Z,2.10
2022-10-31T14:53:07.633Z,1.83
2022-10-31T14:55:35.197Z,2.45
2022-10-31T14:58:04.506Z,2.40
2022-10-31T15:00:33.083Z,2.80
2022-10-31T15:03:10.585Z,1.98
2022-10-31T15:05:44.400Z,2.53
2022-10-31T15:08:15.746Z,3.50
2022-10-31T15:10:46.556Z,2.03
2022-10-31T15:13:21.395Z,3.00
2022-10-31T15:15:52.306Z,2.97
2022-10-31T15:18:22.372Z,3.50
2022-10-31T15:20:50.055Z,2.60
2022-10-31T15:23:27.859Z,2.58
2022-10-31T15:26:07.695Z,2.40
2022-10-31T15:28:35.157Z,2.67
2022-10-31T15:31:03.207Z,3.65
2022-10-31T15:33:38.189Z,2.28
2022-10-31T15:36:07.016Z,3.05
2022-10-31T15:38:34.619Z,5.47
2022-10-31T15:41:06.671Z,2.75
2022-10-31T15:43:38.580Z,3.60
2022-10-31T15:46:08.639Z,3.90
2022-10-31T15:48:36.608Z,4.03
2022-10-31T15:51:04.597Z,3.65
2022-10-31T15:53:44.570Z,3.80
2022-10-31T15:56:14.407Z,4.63
2022-10-31T15:58:46.572Z,5.00
2022-10-31T16:01:34.265Z,3.25
2022-10-31T16:04:06.727Z,3.75
2022-10-31T16:06:35.268Z,3.80
2022-10-31T16:09:03.201Z,4.00
2022-10-31T16:11:34.811Z,4.90
2022-10-31T16:14:07.251Z,5.07
2022-10-31T16:16:36.612Z,4.57
2022-10-31T16:19:06.164Z,3.67
2022-10-31T16:27:08.329Z,4.07
2022-10-31T16:29:45.571Z,3.50
2022-10-31T16:37:40.508Z,3.65
2022-10-31T16:40:08.332Z,3.80
2022-10-31T16:42:36.330Z,3.78
2022-10-31T16:45:03.934Z,3.35
2022-10-31T16:47:31.343Z,3.42
2022-10-31T16:50:01.459Z,4.22
2022-10-31T16:52:37.926Z,3.25
2022-10-31T16:55:14.717Z,3.38
2022-10-31T16:57:44.235Z,4.15
2022-10-31T17:00:14.947Z,3.22
2022-10-31T17:02:43.038Z,3.33
2022-10-31T17:07:52.612Z,3.38
2022-10-31T17:10:21.145Z,2.65
2022-10-31T17:12:49.477Z,3.15
2022-10-31T17:17:58.563Z,3.13
2022-10-31T17:20:27.531Z,2.80
2022-10-31T17:22:55.474Z,3.17
2022-10-31T17:25:24.717Z,3.47
2022-10-31T17:27:53.559Z,2.75
2022-10-31T17:43:43.477Z,4.13
2022-10-31T17:46:10.953Z,3.70
2022-10-31T17:48:38.826Z,4.45
2022-10-31T17:51:07.258Z,3.33
2022-10-31T17:53:35.546Z,3.58
2022-10-31T17:56:07.276Z,4.05
2022-10-31T17:58:54.747Z,3.00
2022-10-31T18:01:22.393Z,3.30
2022-10-31T18:03:54.137Z,2.75
2022-10-31T18:06:21.530Z,3.13
2022-10-31T18:08:48.905Z,3.88
2022-10-31T18:11:21.924Z,3.47
2022-10-31T18:13:59.344Z,3.78
2022-10-31T18:16:27.315Z,3.40
2022-10-31T18:21:36.443Z,3.70
2022-10-31T18:24:03.936Z,3.35
2022-10-31T18:26:31.349Z,3.78
2022-10-31T18:28:58.936Z,4.50
2022-10-31T18:39:36.763Z,4.78
2022-10-31T18:42:04.113Z,4.65
2022-10-31T18:44:32.615Z,4.25
2022-10-31T18:47:00.026Z,5.15
2022-10-31T18:49:30.639Z,3.78
2022-10-31T18:51:58.124Z,4.72
2022-10-31T18:54:25.481Z,3.47
2022-10-31T18:56:52.788Z,3.97
2022-10-31T18:59:20.161Z,4.35
2022-10-31T19:01:47.654Z,3.80
2022-10-31T19:04:15.191Z,5.63
2022-10-31T19:06:42.601Z,6.25
2022-10-31T19:09:12.838Z,3.90
2022-10-31T19:11:40.506Z,3.53
2022-10-31T19:14:09.067Z,5.13
2022-10-31T19:16:36.585Z,5.22
2022-10-31T19:19:04.016Z,3.65
2022-10-31T19:21:33.213Z,5.15
2022-10-31T19:24:01.077Z,4.82
2022-10-31T19:26:29.302Z,5.88
2022-10-31T19:28:57.829Z,5.07
2022-10-31T19:31:25.330Z,4.13
2022-10-31T19:33:52.957Z,5.28
2022-10-31T19:36:20.950Z,4.55
2022-10-31T19:38:50.401Z,4.63
2022-10-31T19:41:19.258Z,5.55
2022-10-31T19:43:46.663Z,4.43
2022-10-31T19:46:22.252Z,5.63
2022-10-31T19:48:55.570Z,4.53
2022-10-31T19:51:23.162Z,4.35
2022-10-31T19:53:50.665Z,4.88
2022-10-31T19:56:19.604Z,4.68
2022-10-31T19:58:48.211Z,4.45
2022-10-31T20:01:19.549Z,4.25
2022-10-31T20:03:47.650Z,5.25
2022-10-31T20:06:17.076Z,5.38
2022-10-31T20:08:44.420Z,4.88
2022-10-31T20:11:11.809Z,6.45
2022-10-31T20:13:39.225Z,5.35
2022-10-31T20:16:12.806Z,6.50
2022-10-31T20:18:40.670Z,5.78
2022-10-31T20:21:12.994Z,6.50
2022-10-31T20:23:40.629Z,5.38
2022-10-31T20:26:10.022Z,5.20
2022-10-31T20:28:40.059Z,4.78
2022-10-31T20:31:12.166Z,6.85
2022-10-31T20:33:39.851Z,6.75
2022-10-31T20:36:08.156Z,7.50
2022-10-31T20:38:38.155Z,5.97
2022-10-31T20:41:06.528Z,6.03
2022-10-31T20:43:34.332Z,5.97
2022-10-31T20:46:02.312Z,5.97
2022-10-31T20:48:30.270Z,7.25
2022-10-31T20:51:01.402Z,6.60
2022-10-31T20:53:28.875Z,6.45
2022-10-31T20:56:06.916Z,8.63
2022-10-31T20:58:35.314Z,7.50
2022-10-31T21:01:02.890Z,9.50
2022-10-31T21:03:32.419Z,6.60
2022-10-31T21:06:01.264Z,7.00
2022-10-31T21:08:30.732Z,8.07
2022-10-31T21:10:58.672Z,7.38
2022-10-31T21:13:26.258Z,7.15
2022-10-31T21:16:00.614Z,6.95
2022-10-31T21:18:28.084Z,7.72
2022-10-31T21:20:55.676Z,6.97
2022-10-31T21:23:23.095Z,5.80
2022-10-31T21:25:50.500Z,6.78
2022-10-31T21:28:17.970Z,8.63
2022-10-31T21:30:47.429Z,8.30
2022-10-31T21:33:15.000Z,6.05
2022-10-31T21:35:49.242Z,7.80
2022-10-31T21:38:16.765Z,6.90
2022-10-31T21:43:11.546Z,7.10
2022-10-31T21:45:39.110Z,7.40
2022-10-31T21:48:06.945Z,7.93
2022-10-31T21:50:35.231Z,6.47
2022-10-31T21:53:22.876Z,7.13
2022-10-31T21:58:34.894Z,6.05
2022-10-31T22:01:05.708Z,6.60
2022-10-31T22:03:40.320Z,6.07
2022-10-31T22:06:08.777Z,5.75
2022-10-31T22:08:36.231Z,5.07
2022-10-31T22:11:07.878Z,4.72
2022-10-31T22:13:35.714Z,4.22
2022-10-31T22:16:04.025Z,5.43
2022-10-31T22:18:31.623Z,4.85
2022-10-31T22:21:03.446Z,4.35
2022-10-31T22:23:31.642Z,3.67
2022-10-31T22:26:05.826Z,4.20
2022-10-31T22:28:33.976Z,3.80
2022-10-31T22:31:05.722Z,3.17
2022-10-31T22:33:33.497Z,4.18
2022-10-31T22:36:03.823Z,3.67
2022-10-31T22:38:31.609Z,3.17
2022-10-31T22:40:59.521Z,3.83
2022-10-31T22:43:27.165Z,5.03
2022-10-31T22:45:56.907Z,4.75
2022-10-31T22:48:24.314Z,3.75
2022-10-31T22:50:53.406Z,5.03
2022-10-31T22:53:20.877Z,4.28
2022-10-31T22:55:50.328Z,4.72
2022-10-31T22:58:17.823Z,3.60
2022-10-31T23:00:45.416Z,4.25
2022-10-31T23:03:13.213Z,4.40
2022-10-31T23:05:40.756Z,4.05
2022-10-31T23:08:08.674Z,4.10
2022-10-31T23:10:41.857Z,3.55
2022-10-31T23:13:27.979Z,4.55
2022-10-31T23:15:55.507Z,4.13
2022-10-31T23:18:47.997Z,3.33
2022-10-31T23:21:30.511Z,3.42
2022-10-31T23:23:58.546Z,3.53
2022-10-31T23:26:44.530Z,3.47
2022-10-31T23:29:12.050Z,4.35
2022-10-31T23:31:39.507Z,2.15
2022-10-31T23:34:07.150Z,3.55
2022-10-31T23:39:09.957Z,2.75
2022-10-31T23:41:37.535Z,2.95
2022-10-31T23:44:05.082Z,3.17
2022-10-31T23:46:32.534Z,3.60
2022-10-31T23:49:00.115Z,3.55
2022-10-31T23:51:27.625Z,3.60
2022-10-31T23:53:55.101Z,3.13
2022-10-31T23:56:22.506Z,3.17
2022-10-31T23:58:49.889Z,3.13
